sensor_id;sensor_type;location;lat;lon;timestamp;temperature;humidity
25450;DHT22;13371;52.080;5.624;2023-02-26T00:01:38;5.10;93.10
25450;DHT22;13371;52.080;5.624;2023-02-26T00:04:05;5.10;93.10
25450;DHT22;13371;52.080;5.624;2023-02-26T00:06:33;5.20;92.90
25450;DHT22;13371;52.080;5.624;2023-02-26T00:08:59;5.20;92.70
25450;DHT22;13371;52.080;5.624;2023-02-26T00:11:25;4.90;92.80
25450;DHT22;13371;52.080;5.624;2023-02-26T00:13:50;5.10;92.80
25450;DHT22;13371;52.080;5.624;2023-02-26T00:16:29;5.00;92.70
25450;DHT22;13371;52.080;5.624;2023-02-26T00:18:56;5.00;92.70
25450;DHT22;13371;52.080;5.624;2023-02-26T00:21:23;5.20;92.50
25450;DHT22;13371;52.080;5.624;2023-02-26T00:23:49;5.10;92.50
25450;DHT22;13371;52.080;5.624;2023-02-26T00:26:15;5.20;92.60
25450;DHT22;13371;52.080;5.624;2023-02-26T00:28:41;4.90;92.60
25450;DHT22;13371;52.080;5.624;2023-02-26T00:31:07;5.00;92.90
25450;DHT22;13371;52.080;5.624;2023-02-26T00:33:33;4.80;92.60
25450;DHT22;13371;52.080;5.624;2023-02-26T00:36:07;4.40;93.40
25450;DHT22;13371;52.080;5.624;2023-02-26T00:38:37;4.40;93.60
25450;DHT22;13371;52.080;5.624;2023-02-26T00:41:04;4.10;93.90
25450;DHT22;13371;52.080;5.624;2023-02-26T00:43:29;4.10;94.30
25450;DHT22;13371;52.080;5.624;2023-02-26T00:46:00;4.10;94.00
25450;DHT22;13371;52.080;5.624;2023-02-26T00:48:51;4.00;94.10
25450;DHT22;13371;52.080;5.624;2023-02-26T00:54:15;3.70;94.30
25450;DHT22;13371;52.080;5.624;2023-02-26T00:56:42;3.80;94.50
25450;DHT22;13371;52.080;5.624;2023-02-26T00:59:08;3.60;94.70
25450;DHT22;13371;52.080;5.624;2023-02-26T01:01:33;3.40;94.90
25450;DHT22;13371;52.080;5.624;2023-02-26T01:03:59;3.30;95.20
25450;DHT22;13371;52.080;5.624;2023-02-26T01:06:28;3.30;95.30
25450;DHT22;13371;52.080;5.624;2023-02-26T01:11:39;3.60;95.10
25450;DHT22;13371;52.080;5.624;2023-02-26T01:14:06;3.50;94.70
25450;DHT22;13371;52.080;5.624;2023-02-26T01:17:01;3.80;94.70
25450;DHT22;13371;52.080;5.624;2023-02-26T01:22:31;3.70;94.40
25450;DHT22;13371;52.080;5.624;2023-02-26T01:25:05;3.60;94.60
25450;DHT22;13371;52.080;5.624;2023-02-26T01:27:31;3.50;94.40
25450;DHT22;13371;52.080;5.624;2023-02-26T01:29:57;3.80;94.50
25450;DHT22;13371;52.080;5.624;2023-02-26T01:32:58;3.90;94.10
25450;DHT22;13371;52.080;5.624;2023-02-26T01:35:38;3.70;93.90
25450;DHT22;13371;52.080;5.624;2023-02-26T01:47:18;3.20;94.10
25450;DHT22;13371;52.080;5.624;2023-02-26T01:49:45;3.40;94.20
25450;DHT22;13371;52.080;5.624;2023-02-26T01:55:18;3.70;93.80
25450;DHT22;13371;52.080;5.624;2023-02-26T01:57:44;3.90;93.70
25450;DHT22;13371;52.080;5.624;2023-02-26T02:00:11;3.80;93.40
25450;DHT22;13371;52.080;5.624;2023-02-26T02:02:37;3.70;93.50
25450;DHT22;13371;52.080;5.624;2023-02-26T02:05:08;3.70;93.60
25450;DHT22;13371;52.080;5.624;2023-02-26T02:07:36;3.50;93.60
25450;DHT22;13371;52.080;5.624;2023-02-26T02:10:02;3.50;93.30
25450;DHT22;13371;52.080;5.624;2023-02-26T02:13:09;3.70;93.50
25450;DHT22;13371;52.080;5.624;2023-02-26T02:15:42;3.70;93.30
25450;DHT22;13371;52.080;5.624;2023-02-26T02:18:26;3.90;93.40
25450;DHT22;13371;52.080;5.624;2023-02-26T02:21:14;4.00;92.90
25450;DHT22;13371;52.080;5.624;2023-02-26T02:23:54;3.80;92.70
25450;DHT22;13371;52.080;5.624;2023-02-26T02:31:45;3.50;92.50
25450;DHT22;13371;52.080;5.624;2023-02-26T02:34:26;3.40;93.30
25450;DHT22;13371;52.080;5.624;2023-02-26T02:36:57;3.40;93.00
25450;DHT22;13371;52.080;5.624;2023-02-26T02:39:39;3.70;93.20
25450;DHT22;13371;52.080;5.624;2023-02-26T02:42:17;3.50;92.40
25450;DHT22;13371;52.080;5.624;2023-02-26T02:44:49;3.60;92.60
25450;DHT22;13371;52.080;5.624;2023-02-26T02:47:17;3.70;92.40
25450;DHT22;13371;52.080;5.624;2023-02-26T02:50:36;3.40;92.40
25450;DHT22;13371;52.080;5.624;2023-02-26T02:52:49;3.40;92.40
25450;DHT22;13371;52.080;5.624;2023-02-26T02:55:37;3.30;92.50
25450;DHT22;13371;52.080;5.624;2023-02-26T02:58:11;3.50;92.40
25450;DHT22;13371;52.080;5.624;2023-02-26T03:00:42;3.40;92.20
25450;DHT22;13371;52.080;5.624;2023-02-26T03:03:45;3.50;92.20
25450;DHT22;13371;52.080;5.624;2023-02-26T03:06:03;3.60;92.10
25450;DHT22;13371;52.080;5.624;2023-02-26T03:08:34;3.70;92.10
25450;DHT22;13371;52.080;5.624;2023-02-26T03:11:01;3.70;92.10
25450;DHT22;13371;52.080;5.624;2023-02-26T03:13:26;3.80;92.00
25450;DHT22;13371;52.080;5.624;2023-02-26T03:16:00;3.80;91.70
25450;DHT22;13371;52.080;5.624;2023-02-26T03:21:47;2.90;92.50
25450;DHT22;13371;52.080;5.624;2023-02-26T03:24:15;2.70;92.70
25450;DHT22;13371;52.080;5.624;2023-02-26T03:26:47;2.50;92.80
25450;DHT22;13371;52.080;5.624;2023-02-26T03:32:13;2.30;92.90
25450;DHT22;13371;52.080;5.624;2023-02-26T03:34:47;2.30;93.50
25450;DHT22;13371;52.080;5.624;2023-02-26T03:37:38;2.50;93.40
25450;DHT22;13371;52.080;5.624;2023-02-26T03:40:09;2.50;92.80
25450;DHT22;13371;52.080;5.624;2023-02-26T03:42:48;2.80;92.40
25450;DHT22;13371;52.080;5.624;2023-02-26T03:45:24;2.80;92.40
25450;DHT22;13371;52.080;5.624;2023-02-26T03:47:51;2.90;92.40
25450;DHT22;13371;52.080;5.624;2023-02-26T03:50:29;3.00;92.20
25450;DHT22;13371;52.080;5.624;2023-02-26T03:52:57;3.10;91.90
25450;DHT22;13371;52.080;5.624;2023-02-26T03:55:35;3.00;91.90
25450;DHT22;13371;52.080;5.624;2023-02-26T03:58:03;3.10;92.50
25450;DHT22;13371;52.080;5.624;2023-02-26T04:00:30;3.20;91.80
25450;DHT22;13371;52.080;5.624;2023-02-26T04:03:09;3.10;91.70
25450;DHT22;13371;52.080;5.624;2023-02-26T04:05:40;3.30;92.10
25450;DHT22;13371;52.080;5.624;2023-02-26T04:08:08;3.20;91.50
25450;DHT22;13371;52.080;5.624;2023-02-26T04:10:41;3.20;91.60
25450;DHT22;13371;52.080;5.624;2023-02-26T04:13:07;3.20;91.90
25450;DHT22;13371;52.080;5.624;2023-02-26T04:15:33;3.20;91.40
25450;DHT22;13371;52.080;5.624;2023-02-26T04:17:59;3.20;91.40
25450;DHT22;13371;52.080;5.624;2023-02-26T04:20:24;3.30;91.30
25450;DHT22;13371;52.080;5.624;2023-02-26T04:22:50;3.10;91.50
25450;DHT22;13371;52.080;5.624;2023-02-26T04:25:16;3.10;91.90
25450;DHT22;13371;52.080;5.624;2023-02-26T04:27:41;2.90;91.40
25450;DHT22;13371;52.080;5.624;2023-02-26T04:30:07;3.10;91.50
25450;DHT22;13371;52.080;5.624;2023-02-26T04:32:35;3.00;91.40
25450;DHT22;13371;52.080;5.624;2023-02-26T04:35:00;3.00;91.50
25450;DHT22;13371;52.080;5.624;2023-02-26T04:37:26;2.80;91.60
25450;DHT22;13371;52.080;5.624;2023-02-26T04:39:51;3.00;91.90
25450;DHT22;13371;52.080;5.624;2023-02-26T04:42:17;2.80;91.50
25450;DHT22;13371;52.080;5.624;2023-02-26T04:44:42;2.90;91.80
25450;DHT22;13371;52.080;5.624;2023-02-26T04:47:08;2.70;91.20
25450;DHT22;13371;52.080;5.624;2023-02-26T04:49:34;2.70;91.40
25450;DHT22;13371;52.080;5.624;2023-02-26T04:52:00;3.00;91.60
25450;DHT22;13371;52.080;5.624;2023-02-26T04:54:25;3.10;91.70
25450;DHT22;13371;52.080;5.624;2023-02-26T04:56:51;3.20;91.60
25450;DHT22;13371;52.080;5.624;2023-02-26T04:59:17;3.20;91.70
25450;DHT22;13371;52.080;5.624;2023-02-26T05:01:42;3.00;91.10
25450;DHT22;13371;52.080;5.624;2023-02-26T05:04:08;2.50;91.00
25450;DHT22;13371;52.080;5.624;2023-02-26T05:06:34;2.50;91.50
25450;DHT22;13371;52.080;5.624;2023-02-26T05:08:59;2.80;91.80
25450;DHT22;13371;52.080;5.624;2023-02-26T05:11:25;2.90;91.70
25450;DHT22;13371;52.080;5.624;2023-02-26T05:13:51;2.90;91.30
25450;DHT22;13371;52.080;5.624;2023-02-26T05:16:16;2.80;90.80
25450;DHT22;13371;52.080;5.624;2023-02-26T05:18:42;2.80;91.60
25450;DHT22;13371;52.080;5.624;2023-02-26T05:21:07;2.50;90.80
25450;DHT22;13371;52.080;5.624;2023-02-26T05:23:33;2.30;91.30
25450;DHT22;13371;52.080;5.624;2023-02-26T05:25:59;2.60;91.80
25450;DHT22;13371;52.080;5.624;2023-02-26T05:28:25;2.60;91.90
25450;DHT22;13371;52.080;5.624;2023-02-26T05:30:51;2.60;91.80
25450;DHT22;13371;52.080;5.624;2023-02-26T05:33:16;2.70;91.70
25450;DHT22;13371;52.080;5.624;2023-02-26T05:35:42;3.00;91.80
25450;DHT22;13371;52.080;5.624;2023-02-26T05:38:08;2.90;91.40
25450;DHT22;13371;52.080;5.624;2023-02-26T05:40:33;2.90;91.50
25450;DHT22;13371;52.080;5.624;2023-02-26T05:42:59;2.90;91.40
25450;DHT22;13371;52.080;5.624;2023-02-26T05:45:24;2.70;91.30
25450;DHT22;13371;52.080;5.624;2023-02-26T05:47:50;2.70;91.40
25450;DHT22;13371;52.080;5.624;2023-02-26T05:50:15;2.70;91.60
25450;DHT22;13371;52.080;5.624;2023-02-26T05:52:41;2.40;91.30
25450;DHT22;13371;52.080;5.624;2023-02-26T05:55:07;2.40;92.00
25450;DHT22;13371;52.080;5.624;2023-02-26T05:57:33;2.50;91.60
25450;DHT22;13371;52.080;5.624;2023-02-26T05:59:59;2.40;91.50
25450;DHT22;13371;52.080;5.624;2023-02-26T06:02:25;2.30;91.80
25450;DHT22;13371;52.080;5.624;2023-02-26T06:04:50;2.00;91.80
25450;DHT22;13371;52.080;5.624;2023-02-26T06:07:16;1.80;92.20
25450;DHT22;13371;52.080;5.624;2023-02-26T06:09:41;2.00;92.60
25450;DHT22;13371;52.080;5.624;2023-02-26T06:12:07;1.90;92.20
25450;DHT22;13371;52.080;5.624;2023-02-26T06:14:34;2.00;92.30
25450;DHT22;13371;52.080;5.624;2023-02-26T06:17:00;2.10;92.20
25450;DHT22;13371;52.080;5.624;2023-02-26T06:19:26;1.90;92.00
25450;DHT22;13371;52.080;5.624;2023-02-26T06:21:52;1.70;92.20
25450;DHT22;13371;52.080;5.624;2023-02-26T06:24:17;1.40;92.50
25450;DHT22;13371;52.080;5.624;2023-02-26T06:26:43;1.50;92.70
25450;DHT22;13371;52.080;5.624;2023-02-26T06:29:08;1.30;93.10
25450;DHT22;13371;52.080;5.624;2023-02-26T06:31:34;1.30;93.10
25450;DHT22;13371;52.080;5.624;2023-02-26T06:33:59;1.40;92.70
25450;DHT22;13371;52.080;5.624;2023-02-26T06:36:25;1.30;92.90
25450;DHT22;13371;52.080;5.624;2023-02-26T06:38:51;1.40;93.20
25450;DHT22;13371;52.080;5.624;2023-02-26T06:41:16;1.50;93.20
25450;DHT22;13371;52.080;5.624;2023-02-26T06:43:42;1.40;92.90
25450;DHT22;13371;52.080;5.624;2023-02-26T06:46:07;1.30;93.10
25450;DHT22;13371;52.080;5.624;2023-02-26T06:48:33;1.60;92.90
25450;DHT22;13371;52.080;5.624;2023-02-26T06:50:59;1.60;92.80
25450;DHT22;13371;52.080;5.624;2023-02-26T06:53:24;1.60;93.00
25450;DHT22;13371;52.080;5.624;2023-02-26T06:55:51;1.60;92.90
25450;DHT22;13371;52.080;5.624;2023-02-26T06:58:17;1.30;92.70
25450;DHT22;13371;52.080;5.624;2023-02-26T07:00:43;1.60;93.90
25450;DHT22;13371;52.080;5.624;2023-02-26T07:03:15;1.40;92.90
25450;DHT22;13371;52.080;5.624;2023-02-26T07:05:40;1.40;93.40
25450;DHT22;13371;52.080;5.624;2023-02-26T07:08:06;1.50;93.00
25450;DHT22;13371;52.080;5.624;2023-02-26T07:10:33;1.50;93.30
25450;DHT22;13371;52.080;5.624;2023-02-26T07:12:59;1.30;93.10
25450;DHT22;13371;52.080;5.624;2023-02-26T07:15:25;1.50;93.20
25450;DHT22;13371;52.080;5.624;2023-02-26T07:17:51;1.70;93.20
25450;DHT22;13371;52.080;5.624;2023-02-26T07:20:16;1.70;92.90
25450;DHT22;13371;52.080;5.624;2023-02-26T07:22:43;1.70;93.20
25450;DHT22;13371;52.080;5.624;2023-02-26T07:25:10;1.20;93.30
25450;DHT22;13371;52.080;5.624;2023-02-26T07:27:36;1.30;93.90
25450;DHT22;13371;52.080;5.624;2023-02-26T07:30:04;1.50;93.50
25450;DHT22;13371;52.080;5.624;2023-02-26T07:32:30;1.30;93.70
25450;DHT22;13371;52.080;5.624;2023-02-26T07:34:55;1.60;93.80
25450;DHT22;13371;52.080;5.624;2023-02-26T07:37:21;1.80;93.60
25450;DHT22;13371;52.080;5.624;2023-02-26T07:39:47;1.70;94.00
25450;DHT22;13371;52.080;5.624;2023-02-26T07:42:12;1.90;93.40
25450;DHT22;13371;52.080;5.624;2023-02-26T07:44:38;2.50;92.70
25450;DHT22;13371;52.080;5.624;2023-02-26T07:47:04;2.90;92.10
25450;DHT22;13371;52.080;5.624;2023-02-26T07:49:29;3.70;91.00
25450;DHT22;13371;52.080;5.624;2023-02-26T07:51:57;4.30;89.00
25450;DHT22;13371;52.080;5.624;2023-02-26T07:54:22;4.70;88.10
25450;DHT22;13371;52.080;5.624;2023-02-26T07:56:48;5.10;85.30
25450;DHT22;13371;52.080;5.624;2023-02-26T07:59:13;5.70;83.50
25450;DHT22;13371;52.080;5.624;2023-02-26T08:01:39;6.60;80.90
25450;DHT22;13371;52.080;5.624;2023-02-26T08:04:04;8.10;79.20
25450;DHT22;13371;52.080;5.624;2023-02-26T08:06:30;8.70;72.70
25450;DHT22;13371;52.080;5.624;2023-02-26T08:08:55;9.10;74.00
25450;DHT22;13371;52.080;5.624;2023-02-26T08:11:21;8.70;70.10
25450;DHT22;13371;52.080;5.624;2023-02-26T08:13:47;8.30;72.60
25450;DHT22;13371;52.080;5.624;2023-02-26T08:16:12;9.70;72.60
25450;DHT22;13371;52.080;5.624;2023-02-26T08:18:38;9.50;70.40
25450;DHT22;13371;52.080;5.624;2023-02-26T08:21:04;9.20;68.00
25450;DHT22;13371;52.080;5.624;2023-02-26T08:23:29;7.90;71.80
25450;DHT22;13371;52.080;5.624;2023-02-26T08:26:00;7.40;76.20
25450;DHT22;13371;52.080;5.624;2023-02-26T08:28:25;8.60;74.20
25450;DHT22;13371;52.080;5.624;2023-02-26T08:30:54;8.60;72.20
25450;DHT22;13371;52.080;5.624;2023-02-26T08:33:20;8.90;71.60
25450;DHT22;13371;52.080;5.624;2023-02-26T08:35:46;9.20;71.90
25450;DHT22;13371;52.080;5.624;2023-02-26T08:38:11;9.30;71.00
25450;DHT22;13371;52.080;5.624;2023-02-26T08:40:37;9.20;71.00
25450;DHT22;13371;52.080;5.624;2023-02-26T08:43:02;8.30;73.30
25450;DHT22;13371;52.080;5.624;2023-02-26T08:45:29;9.30;72.80
25450;DHT22;13371;52.080;5.624;2023-02-26T08:47:54;9.90;71.80
25450;DHT22;13371;52.080;5.624;2023-02-26T08:50:21;9.60;68.80
25450;DHT22;13371;52.080;5.624;2023-02-26T08:52:47;8.40;72.70
25450;DHT22;13371;52.080;5.624;2023-02-26T08:55:12;8.00;75.60
25450;DHT22;13371;52.080;5.624;2023-02-26T08:57:38;7.60;76.00
25450;DHT22;13371;52.080;5.624;2023-02-26T09:00:04;8.10;76.00
25450;DHT22;13371;52.080;5.624;2023-02-26T09:02:35;8.70;76.50
25450;DHT22;13371;52.080;5.624;2023-02-26T09:05:01;7.90;72.40
25450;DHT22;13371;52.080;5.624;2023-02-26T09:07:26;6.80;77.10
25450;DHT22;13371;52.080;5.624;2023-02-26T09:09:52;6.10;78.80
25450;DHT22;13371;52.080;5.624;2023-02-26T09:12:17;5.90;79.70
25450;DHT22;13371;52.080;5.624;2023-02-26T09:14:43;5.50;80.90
25450;DHT22;13371;52.080;5.624;2023-02-26T09:17:08;5.70;80.20
25450;DHT22;13371;52.080;5.624;2023-02-26T09:19:34;6.00;78.50
25450;DHT22;13371;52.080;5.624;2023-02-26T09:22:00;6.10;79.00
25450;DHT22;13371;52.080;5.624;2023-02-26T09:24:25;6.50;77.40
25450;DHT22;13371;52.080;5.624;2023-02-26T09:26:51;6.80;74.40
25450;DHT22;13371;52.080;5.624;2023-02-26T09:29:16;6.70;74.30
25450;DHT22;13371;52.080;5.624;2023-02-26T09:31:42;6.40;73.60
25450;DHT22;13371;52.080;5.624;2023-02-26T09:34:08;6.60;74.20
25450;DHT22;13371;52.080;5.624;2023-02-26T09:36:33;6.50;74.70
25450;DHT22;13371;52.080;5.624;2023-02-26T09:38:59;6.80;73.50
25450;DHT22;13371;52.080;5.624;2023-02-26T09:41:52;7.10;72.80
25450;DHT22;13371;52.080;5.624;2023-02-26T09:44:28;7.00;71.40
25450;DHT22;13371;52.080;5.624;2023-02-26T09:49:31;7.30;71.70
25450;DHT22;13371;52.080;5.624;2023-02-26T09:55:29;7.70;70.80
25450;DHT22;13371;52.080;5.624;2023-02-26T09:57:59;7.80;71.70
25450;DHT22;13371;52.080;5.624;2023-02-26T10:00:46;6.60;70.70
25450;DHT22;13371;52.080;5.624;2023-02-26T10:06:29;6.40;75.70
25450;DHT22;13371;52.080;5.624;2023-02-26T10:09:05;6.50;73.40
25450;DHT22;13371;52.080;5.624;2023-02-26T10:11:46;6.90;73.90
25450;DHT22;13371;52.080;5.624;2023-02-26T10:14:32;7.10;73.10
25450;DHT22;13371;52.080;5.624;2023-02-26T10:19:56;6.70;73.40
25450;DHT22;13371;52.080;5.624;2023-02-26T10:22:32;6.90;73.70
25450;DHT22;13371;52.080;5.624;2023-02-26T10:25:05;7.10;73.30
25450;DHT22;13371;52.080;5.624;2023-02-26T10:27:39;7.80;74.00
25450;DHT22;13371;52.080;5.624;2023-02-26T10:30:36;7.60;70.70
25450;DHT22;13371;52.080;5.624;2023-02-26T10:33:14;7.20;71.70
25450;DHT22;13371;52.080;5.624;2023-02-26T10:35:55;7.00;72.60
25450;DHT22;13371;52.080;5.624;2023-02-26T10:38:29;6.60;73.30
25450;DHT22;13371;52.080;5.624;2023-02-26T10:41:02;6.10;75.70
25450;DHT22;13371;52.080;5.624;2023-02-26T10:43:37;6.00;75.60
25450;DHT22;13371;52.080;5.624;2023-02-26T10:46:24;6.50;75.00
25450;DHT22;13371;52.080;5.624;2023-02-26T10:51:44;6.90;73.20
25450;DHT22;13371;52.080;5.624;2023-02-26T10:54:28;6.80;73.80
25450;DHT22;13371;52.080;5.624;2023-02-26T10:56:55;6.80;74.20
25450;DHT22;13371;52.080;5.624;2023-02-26T10:59:22;6.80;74.40
25450;DHT22;13371;52.080;5.624;2023-02-26T11:01:48;6.90;73.60
25450;DHT22;13371;52.080;5.624;2023-02-26T11:04:17;7.00;74.10
25450;DHT22;13371;52.080;5.624;2023-02-26T11:06:59;6.90;73.90
25450;DHT22;13371;52.080;5.624;2023-02-26T11:09:36;7.10;74.90
25450;DHT22;13371;52.080;5.624;2023-02-26T11:14:36;7.00;73.80
25450;DHT22;13371;52.080;5.624;2023-02-26T11:17:06;7.10;73.30
25450;DHT22;13371;52.080;5.624;2023-02-26T11:19:38;6.80;73.00
25450;DHT22;13371;52.080;5.624;2023-02-26T11:22:05;6.80;74.30
25450;DHT22;13371;52.080;5.624;2023-02-26T11:24:43;6.90;73.40
25450;DHT22;13371;52.080;5.624;2023-02-26T11:27:15;7.30;70.90
25450;DHT22;13371;52.080;5.624;2023-02-26T11:29:47;7.20;70.10
25450;DHT22;13371;52.080;5.624;2023-02-26T11:32:23;7.40;69.50
25450;DHT22;13371;52.080;5.624;2023-02-26T11:34:53;7.40;69.80
25450;DHT22;13371;52.080;5.624;2023-02-26T11:37:22;7.30;70.90
25450;DHT22;13371;52.080;5.624;2023-02-26T11:39:53;7.30;72.70
25450;DHT22;13371;52.080;5.624;2023-02-26T11:42:19;7.60;70.50
25450;DHT22;13371;52.080;5.624;2023-02-26T11:44:46;7.40;70.80
25450;DHT22;13371;52.080;5.624;2023-02-26T11:47:13;7.50;68.70
25450;DHT22;13371;52.080;5.624;2023-02-26T11:49:44;7.50;69.00
25450;DHT22;13371;52.080;5.624;2023-02-26T11:52:33;7.70;69.20
25450;DHT22;13371;52.080;5.624;2023-02-26T11:55:01;8.10;69.00
25450;DHT22;13371;52.080;5.624;2023-02-26T11:57:29;8.10;68.30
25450;DHT22;13371;52.080;5.624;2023-02-26T11:59:58;8.50;69.30
25450;DHT22;13371;52.080;5.624;2023-02-26T12:02:26;8.30;68.50
25450;DHT22;13371;52.080;5.624;2023-02-26T12:04:58;8.30;71.00
25450;DHT22;13371;52.080;5.624;2023-02-26T12:07:25;8.10;70.50
25450;DHT22;13371;52.080;5.624;2023-02-26T12:09:51;7.60;71.30
25450;DHT22;13371;52.080;5.624;2023-02-26T12:12:33;7.50;70.90
25450;DHT22;13371;52.080;5.624;2023-02-26T12:18:29;8.10;73.40
25450;DHT22;13371;52.080;5.624;2023-02-26T12:26:53;7.80;72.00
25450;DHT22;13371;52.080;5.624;2023-02-26T12:35:23;7.50;71.60
25450;DHT22;13371;52.080;5.624;2023-02-26T12:41:28;7.60;72.00
25450;DHT22;13371;52.080;5.624;2023-02-26T12:43:55;8.10;70.90
25450;DHT22;13371;52.080;5.624;2023-02-26T12:51:59;8.10;68.70
25450;DHT22;13371;52.080;5.624;2023-02-26T13:00:26;7.80;68.70
25450;DHT22;13371;52.080;5.624;2023-02-26T13:08:31;8.10;68.10
25450;DHT22;13371;52.080;5.624;2023-02-26T13:14:40;8.60;67.40
25450;DHT22;13371;52.080;5.624;2023-02-26T13:17:13;8.10;67.40
25450;DHT22;13371;52.080;5.624;2023-02-26T13:19:46;8.10;68.00
25450;DHT22;13371;52.080;5.624;2023-02-26T13:22:35;8.00;68.20
25450;DHT22;13371;52.080;5.624;2023-02-26T13:25:20;8.00;69.20
25450;DHT22;13371;52.080;5.624;2023-02-26T13:27:48;8.10;68.00
25450;DHT22;13371;52.080;5.624;2023-02-26T13:30:28;8.40;68.20
25450;DHT22;13371;52.080;5.624;2023-02-26T13:32:57;8.00;66.90
25450;DHT22;13371;52.080;5.624;2023-02-26T13:35:32;7.80;66.80
25450;DHT22;13371;52.080;5.624;2023-02-26T13:38:00;7.90;65.90
25450;DHT22;13371;52.080;5.624;2023-02-26T13:40:44;8.10;66.10
25450;DHT22;13371;52.080;5.624;2023-02-26T13:51:38;9.70;66.20
25450;DHT22;13371;52.080;5.624;2023-02-26T13:59:27;8.90;63.90
25450;DHT22;13371;52.080;5.624;2023-02-26T14:01:56;9.20;64.60
25450;DHT22;13371;52.080;5.624;2023-02-26T14:04:30;9.50;64.70
25450;DHT22;13371;52.080;5.624;2023-02-26T14:07:14;8.90;64.50
25450;DHT22;13371;52.080;5.624;2023-02-26T14:10:00;9.10;66.50
25450;DHT22;13371;52.080;5.624;2023-02-26T14:12:35;9.50;64.80
25450;DHT22;13371;52.080;5.624;2023-02-26T14:22:50;8.90;66.10
25450;DHT22;13371;52.080;5.624;2023-02-26T14:30:47;8.50;66.00
25450;DHT22;13371;52.080;5.624;2023-02-26T14:33:16;8.50;67.30
25450;DHT22;13371;52.080;5.624;2023-02-26T14:35:48;8.40;66.90
25450;DHT22;13371;52.080;5.624;2023-02-26T14:38:32;8.30;65.80
25450;DHT22;13371;52.080;5.624;2023-02-26T14:41:30;8.40;66.30
25450;DHT22;13371;52.080;5.624;2023-02-26T14:44:27;8.60;67.20
25450;DHT22;13371;52.080;5.624;2023-02-26T14:46:54;8.50;67.60
25450;DHT22;13371;52.080;5.624;2023-02-26T14:49:35;8.90;66.60
25450;DHT22;13371;52.080;5.624;2023-02-26T15:00:52;8.90;66.40
25450;DHT22;13371;52.080;5.624;2023-02-26T15:04:05;8.30;67.50
25450;DHT22;13371;52.080;5.624;2023-02-26T15:09:38;8.30;67.30
25450;DHT22;13371;52.080;5.624;2023-02-26T15:22:59;9.00;66.40
25450;DHT22;13371;52.080;5.624;2023-02-26T15:25:31;9.00;67.70
25450;DHT22;13371;52.080;5.624;2023-02-26T15:27:58;8.90;66.50
25450;DHT22;13371;52.080;5.624;2023-02-26T15:30:24;9.00;67.50
25450;DHT22;13371;52.080;5.624;2023-02-26T15:32:56;8.80;67.60
25450;DHT22;13371;52.080;5.624;2023-02-26T15:35:22;8.70;68.90
25450;DHT22;13371;52.080;5.624;2023-02-26T15:37:53;8.50;68.00
25450;DHT22;13371;52.080;5.624;2023-02-26T15:40:19;8.20;68.90
25450;DHT22;13371;52.080;5.624;2023-02-26T15:42:49;7.80;71.10
25450;DHT22;13371;52.080;5.624;2023-02-26T15:48:17;7.90;69.60
25450;DHT22;13371;52.080;5.624;2023-02-26T15:50:45;8.10;70.00
25450;DHT22;13371;52.080;5.624;2023-02-26T15:53:38;8.10;69.40
25450;DHT22;13371;52.080;5.624;2023-02-26T15:56:08;7.70;69.30
25450;DHT22;13371;52.080;5.624;2023-02-26T15:58:44;7.40;69.40
25450;DHT22;13371;52.080;5.624;2023-02-26T16:01:19;7.50;70.80
25450;DHT22;13371;52.080;5.624;2023-02-26T16:03:46;7.60;70.00
25450;DHT22;13371;52.080;5.624;2023-02-26T16:06:16;7.70;70.80
25450;DHT22;13371;52.080;5.624;2023-02-26T16:08:42;7.40;72.20
25450;DHT22;13371;52.080;5.624;2023-02-26T16:11:09;7.20;73.20
25450;DHT22;13371;52.080;5.624;2023-02-26T16:13:37;7.60;73.20
25450;DHT22;13371;52.080;5.624;2023-02-26T16:16:10;7.10;72.50
25450;DHT22;13371;52.080;5.624;2023-02-26T16:18:39;7.10;74.30
25450;DHT22;13371;52.080;5.624;2023-02-26T16:21:07;7.50;74.40
25450;DHT22;13371;52.080;5.624;2023-02-26T16:23:45;7.70;74.70
25450;DHT22;13371;52.080;5.624;2023-02-26T16:26:17;7.70;74.30
25450;DHT22;13371;52.080;5.624;2023-02-26T16:28:47;7.80;74.40
25450;DHT22;13371;52.080;5.624;2023-02-26T16:31:18;7.60;74.70
25450;DHT22;13371;52.080;5.624;2023-02-26T16:34:33;7.40;76.00
25450;DHT22;13371;52.080;5.624;2023-02-26T16:39:44;6.80;77.50
25450;DHT22;13371;52.080;5.624;2023-02-26T16:42:15;6.70;77.90
25450;DHT22;13371;52.080;5.624;2023-02-26T16:45:00;6.70;77.70
25450;DHT22;13371;52.080;5.624;2023-02-26T16:47:29;6.80;76.70
25450;DHT22;13371;52.080;5.624;2023-02-26T16:49:55;7.10;78.10
25450;DHT22;13371;52.080;5.624;2023-02-26T16:52:23;7.00;77.30
25450;DHT22;13371;52.080;5.624;2023-02-26T16:54:57;6.90;77.30
25450;DHT22;13371;52.080;5.624;2023-02-26T16:57:34;6.90;77.10
25450;DHT22;13371;52.080;5.624;2023-02-26T17:00:04;6.80;77.30
25450;DHT22;13371;52.080;5.624;2023-02-26T17:02:34;6.50;78.60
25450;DHT22;13371;52.080;5.624;2023-02-26T17:07:54;6.30;80.70
25450;DHT22;13371;52.080;5.624;2023-02-26T17:10:35;6.10;81.20
25450;DHT22;13371;52.080;5.624;2023-02-26T17:13:18;6.00;81.60
25450;DHT22;13371;52.080;5.624;2023-02-26T17:15:46;6.30;83.10
25450;DHT22;13371;52.080;5.624;2023-02-26T17:18:12;6.40;81.90
25450;DHT22;13371;52.080;5.624;2023-02-26T17:20:38;6.20;81.80
25450;DHT22;13371;52.080;5.624;2023-02-26T17:23:06;6.50;81.70
25450;DHT22;13371;52.080;5.624;2023-02-26T17:25:38;6.20;82.10
25450;DHT22;13371;52.080;5.624;2023-02-26T17:28:05;6.40;82.30
25450;DHT22;13371;52.080;5.624;2023-02-26T17:30:31;6.30;82.30
25450;DHT22;13371;52.080;5.624;2023-02-26T17:33:01;6.30;82.50
25450;DHT22;13371;52.080;5.624;2023-02-26T17:35:29;6.10;82.80
25450;DHT22;13371;52.080;5.624;2023-02-26T17:37:56;6.10;83.00
25450;DHT22;13371;52.080;5.624;2023-02-26T17:40:28;6.10;83.00
25450;DHT22;13371;52.080;5.624;2023-02-26T17:42:56;6.10;83.00
25450;DHT22;13371;52.080;5.624;2023-02-26T17:45:22;6.10;83.80
25450;DHT22;13371;52.080;5.624;2023-02-26T17:47:48;6.00;84.10
25450;DHT22;13371;52.080;5.624;2023-02-26T17:50:25;6.00;83.10
25450;DHT22;13371;52.080;5.624;2023-02-26T17:52:55;6.00;84.20
25450;DHT22;13371;52.080;5.624;2023-02-26T17:55:21;5.90;83.80
25450;DHT22;13371;52.080;5.624;2023-02-26T17:57:46;5.90;84.30
25450;DHT22;13371;52.080;5.624;2023-02-26T18:00:14;6.00;83.70
25450;DHT22;13371;52.080;5.624;2023-02-26T18:02:40;5.80;84.90
25450;DHT22;13371;52.080;5.624;2023-02-26T18:05:06;5.60;85.60
25450;DHT22;13371;52.080;5.624;2023-02-26T18:07:32;5.90;84.70
25450;DHT22;13371;52.080;5.624;2023-02-26T18:09:57;5.90;84.60
25450;DHT22;13371;52.080;5.624;2023-02-26T18:12:23;6.10;84.10
25450;DHT22;13371;52.080;5.624;2023-02-26T18:14:49;6.10;83.60
25450;DHT22;13371;52.080;5.624;2023-02-26T18:17:22;6.00;84.30
25450;DHT22;13371;52.080;5.624;2023-02-26T18:19:48;6.00;84.30
25450;DHT22;13371;52.080;5.624;2023-02-26T18:22:18;6.20;83.40
25450;DHT22;13371;52.080;5.624;2023-02-26T18:24:44;6.30;83.30
25450;DHT22;13371;52.080;5.624;2023-02-26T18:27:15;6.20;84.10
25450;DHT22;13371;52.080;5.624;2023-02-26T18:29:42;6.10;83.50
25450;DHT22;13371;52.080;5.624;2023-02-26T18:32:12;6.30;83.20